Time;durP1;ratioP1;P1;durP2;ratioP2;P2;SDS_P1;SDS_P2;PMS_P1;PMS_P2;Temp;Humidity;BMP_temperature;BMP_pressure;BME280_temperature;BME280_humidity;BME280_pressure;Samples;Min_cycle;Max_cycle;Signal;HPM_P1;HPM_P2
2021/01/07 06:01:52;;;;;;;13.20;7.00;;;1.20;97.30;;;;;;5342787;23;20523;-75
2021/01/07 06:04:20;;;;;;;14.73;7.23;;;1.20;97.30;;;;;;4916067;29;20428;-75
2021/01/07 06:06:47;;;;;;;15.03;6.77;;;1.20;97.30;;;;;;4915872;29;20204;-75
2021/01/07 06:09:14;;;;;;;13.47;6.97;;;1.20;97.30;;;;;;4916906;29;20408;-75
2021/01/07 06:11:42;;;;;;;13.53;6.83;;;1.20;97.30;;;;;;4904745;29;20819;-75
2021/01/07 06:14:08;;;;;;;13.47;6.80;;;1.20;97.30;;;;;;4898760;29;20449;-74
2021/01/07 06:16:34;;;;;;;15.53;7.20;;;1.20;97.30;;;;;;4897060;29;20504;-74
2021/01/07 06:19:30;;;;;;;17.70;7.50;;;1.30;97.30;;;;;;4897467;29;20558;-75
2021/01/07 06:21:59;;;;;;;19.83;10.13;;;1.30;97.30;;;;;;4896970;29;20447;-75
2021/01/07 06:24:31;;;;;;;18.07;8.50;;;1.20;97.30;;;;;;4897943;29;20782;-75
2021/01/07 06:27:16;;;;;;;13.87;8.13;;;1.30;97.30;;;;;;4896840;29;20892;-75
2021/01/07 06:29:42;;;;;;;15.47;8.27;;;1.30;97.30;;;;;;4896074;29;20429;-75
2021/01/07 06:32:08;;;;;;;14.83;7.30;;;1.30;97.30;;;;;;4893995;29;20434;-75
2021/01/07 06:34:39;;;;;;;13.60;7.10;;;1.30;97.30;;;;;;4896613;29;20477;-74
2021/01/07 06:37:06;;;;;;;14.80;6.60;;;1.30;97.30;;;;;;4896363;29;20508;-75
2021/01/07 06:39:41;;;;;;;16.23;7.30;;;1.30;97.30;;;;;;4896790;29;20432;-75
2021/01/07 06:42:07;;;;;;;15.10;7.27;;;1.30;97.30;;;;;;4896448;29;20980;-75
2021/01/07 06:44:34;;;;;;;11.60;6.27;;;1.30;97.30;;;;;;4891961;29;20849;-75
2021/01/07 06:47:00;;;;;;;12.90;6.47;;;1.30;97.30;;;;;;4897691;29;20426;-75
2021/01/07 06:49:30;;;;;;;10.93;5.77;;;1.30;97.30;;;;;;4897757;29;20480;-75
2021/01/07 06:52:05;;;;;;;13.60;6.10;;;1.30;97.30;;;;;;4894273;29;20983;-75
2021/01/07 06:54:33;;;;;;;14.20;7.43;;;1.30;97.30;;;;;;4897560;29;20839;-75
2021/01/07 06:57:02;;;;;;;13.87;7.07;;;1.30;97.30;;;;;;4896431;29;20517;-75
2021/01/07 06:59:28;;;;;;;14.67;6.93;;;1.30;97.30;;;;;;4898176;29;20420;-76
2021/01/07 07:01:59;;;;;;;13.57;6.37;;;1.30;97.30;;;;;;4900407;29;20479;-75
2021/01/07 07:04:32;;;;;;;16.30;7.40;;;1.30;97.30;;;;;;4900992;29;20429;-74
2021/01/07 07:07:23;;;;;;;18.80;7.50;;;1.30;97.30;;;;;;4888279;29;20441;-74
2021/01/07 07:10:12;;;;;;;15.30;7.17;;;1.30;97.30;;;;;;4896878;29;20425;-75
2021/01/07 07:12:39;;;;;;;17.50;8.07;;;1.30;97.30;;;;;;4898760;29;20449;-74
2021/01/07 07:15:09;;;;;;;21.00;8.90;;;1.30;97.30;;;;;;4900007;29;20560;-74
2021/01/07 07:17:37;;;;;;;13.47;7.37;;;1.30;97.30;;;;;;4901011;29;20465;-74
2021/01/07 07:20:07;;;;;;;15.70;7.90;;;1.30;97.30;;;;;;4899842;29;20425;-75
2021/01/07 07:22:42;;;;;;;15.60;8.60;;;1.30;97.30;;;;;;4900073;29;20513;-74
2021/01/07 07:25:08;;;;;;;20.40;8.77;;;1.40;97.30;;;;;;4900320;29;20420;-74
2021/01/07 07:27:52;;;;;;;20.73;7.87;;;1.40;97.30;;;;;;4899516;29;20477;-75
2021/01/07 07:30:27;;;;;;;17.03;8.03;;;1.40;97.30;;;;;;4899868;29;20436;-75
2021/01/07 07:32:53;;;;;;;16.67;7.90;;;1.40;97.30;;;;;;4900091;29;20823;-74
2021/01/07 07:35:27;;;;;;;17.37;8.83;;;1.40;97.30;;;;;;4899758;29;20452;-74
2021/01/07 07:37:54;;;;;;;25.17;11.30;;;1.40;97.30;;;;;;4899559;29;20473;-74
2021/01/07 07:40:37;;;;;;;18.47;9.20;;;1.40;97.30;;;;;;4900584;29;20417;-75
2021/01/07 07:43:05;;;;;;;18.43;8.37;;;1.40;97.30;;;;;;4900562;29;20931;-76
2021/01/07 07:45:34;;;;;;;25.13;10.13;;;1.40;97.30;;;;;;4900369;29;20843;-75
2021/01/07 07:48:01;;;;;;;19.63;9.00;;;1.40;97.30;;;;;;4899808;29;20999;-75
2021/01/07 07:50:31;;;;;;;21.63;9.13;;;1.40;97.30;;;;;;4899869;29;20417;-75
2021/01/07 07:53:13;;;;;;;15.37;8.07;;;1.40;97.30;;;;;;4899449;29;20472;-75
2021/01/07 07:55:41;;;;;;;19.50;8.47;;;1.40;97.30;;;;;;4898340;29;20429;-75
2021/01/07 07:58:14;;;;;;;15.87;7.50;;;1.40;97.30;;;;;;4898077;29;20429;-75
2021/01/07 08:01:00;;;;;;;15.80;8.43;;;1.40;97.30;;;;;;4899705;29;20465;-75
2021/01/07 08:03:30;;;;;;;18.97;8.50;;;1.40;97.30;;;;;;4898857;29;21045;-74
2021/01/07 08:05:59;;;;;;;16.17;7.10;;;1.40;97.30;;;;;;4896075;29;20426;-75
2021/01/07 08:08:30;;;;;;;18.60;9.23;;;1.40;97.30;;;;;;4903053;29;20925;-75
2021/01/07 08:10:57;;;;;;;17.60;8.53;;;1.40;97.30;;;;;;4904642;29;20797;-75
2021/01/07 08:13:25;;;;;;;12.60;6.80;;;1.40;97.30;;;;;;4910340;29;20808;-75
2021/01/07 08:15:52;;;;;;;17.53;7.53;;;1.40;97.30;;;;;;4910328;29;20432;-75
2021/01/07 08:18:18;;;;;;;15.80;8.00;;;1.40;97.30;;;;;;4910188;29;20440;-75
2021/01/07 08:20:45;;;;;;;17.00;6.90;;;1.40;97.30;;;;;;4881624;29;20995;-74
2021/01/07 08:23:12;;;;;;;15.97;7.70;;;1.40;97.30;;;;;;4902859;29;20186;-74
2021/01/07 08:25:38;;;;;;;17.57;8.33;;;1.40;97.30;;;;;;4899501;29;20509;-74
2021/01/07 08:28:27;;;;;;;18.37;8.23;;;1.50;97.30;;;;;;4904240;29;20401;-74
2021/01/07 08:30:56;;;;;;;16.53;7.93;;;1.50;97.30;;;;;;4898739;29;20493;-74
2021/01/07 08:33:24;;;;;;;20.23;9.40;;;1.50;97.30;;;;;;4899105;29;20420;-74
2021/01/07 08:35:51;;;;;;;19.53;8.10;;;1.50;97.30;;;;;;4899386;29;20513;-74
2021/01/07 08:38:28;;;;;;;16.00;8.33;;;1.50;97.30;;;;;;4899534;29;20432;-73
2021/01/07 08:41:22;;;;;;;16.00;7.87;;;1.50;97.30;;;;;;4907524;29;20483;-75
2021/01/07 08:43:53;;;;;;;18.03;7.73;;;1.50;97.30;;;;;;4911467;29;20413;-74
2021/01/07 08:46:26;;;;;;;20.27;9.20;;;1.50;97.30;;;;;;4906622;29;20421;-75
2021/01/07 08:49:03;;;;;;;15.23;7.87;;;1.50;97.30;;;;;;4908569;29;20428;-74
2021/01/07 08:51:46;;;;;;;21.23;9.10;;;1.60;97.30;;;;;;4908036;29;20801;-74
2021/01/07 08:54:13;;;;;;;16.87;7.97;;;1.60;97.30;;;;;;4879839;29;20517;-74
2021/01/07 08:56:41;;;;;;;21.13;8.97;;;1.60;97.30;;;;;;4879602;29;20465;-74
2021/01/07 08:59:26;;;;;;;19.73;9.80;;;1.60;97.30;;;;;;4887610;29;20440;-74
2021/01/07 09:02:04;;;;;;;18.63;9.23;;;1.60;97.30;;;;;;4899309;29;20459;-74
2021/01/07 09:04:32;;;;;;;23.40;9.50;;;1.60;97.30;;;;;;4898437;29;20413;-75
2021/01/07 09:07:12;;;;;;;19.93;8.87;;;1.60;97.30;;;;;;4898348;29;20507;-75
2021/01/07 09:09:55;;;;;;;22.50;9.37;;;1.60;97.30;;;;;;4898379;29;20425;-75
2021/01/07 09:12:22;;;;;;;25.20;8.77;;;1.70;97.30;;;;;;4899295;29;20441;-75
2021/01/07 09:14:50;;;;;;;19.20;9.70;;;1.70;97.30;;;;;;4899505;29;20427;-75
2021/01/07 09:17:18;;;;;;;20.87;9.20;;;1.70;97.30;;;;;;4898005;29;20949;-75
2021/01/07 09:19:44;;;;;;;17.57;8.40;;;1.70;97.30;;;;;;4898182;29;20928;-75
2021/01/07 09:22:23;;;;;;;19.60;9.27;;;1.70;97.30;;;;;;4897289;29;20454;-75
2021/01/07 09:24:50;;;;;;;18.53;9.13;;;1.70;97.30;;;;;;4898168;29;20958;-74
2021/01/07 09:27:18;;;;;;;17.97;8.90;;;1.80;97.30;;;;;;4897884;29;20867;-75
2021/01/07 09:29:44;;;;;;;20.47;9.23;;;1.80;97.30;;;;;;4899348;29;20426;-74
2021/01/07 09:32:11;;;;;;;18.43;8.80;;;1.80;97.30;;;;;;4897754;29;20456;-75
2021/01/07 09:34:38;;;;;;;16.90;9.00;;;1.90;97.30;;;;;;4899288;29;20508;-75
2021/01/07 09:37:18;;;;;;;17.83;8.73;;;1.90;97.30;;;;;;4897816;29;20461;-75
2021/01/07 09:39:46;;;;;;;20.27;8.97;;;1.90;97.30;;;;;;4899073;29;20419;-75
2021/01/07 09:42:12;;;;;;;20.20;9.90;;;1.90;97.30;;;;;;4897738;29;20442;-75
2021/01/07 09:44:38;;;;;;;16.77;8.30;;;2.00;97.30;;;;;;4897741;29;20472;-75
2021/01/07 09:47:05;;;;;;;22.53;9.47;;;2.00;97.30;;;;;;4898920;29;20457;-75
2021/01/07 09:49:32;;;;;;;22.10;9.97;;;2.00;97.30;;;;;;4897797;29;20472;-75
2021/01/07 09:51:59;;;;;;;21.87;10.07;;;2.00;97.30;;;;;;4897414;29;20492;-75
2021/01/07 09:54:25;;;;;;;19.10;8.90;;;2.00;97.30;;;;;;4897551;29;20497;-75
2021/01/07 09:56:52;;;;;;;19.80;9.73;;;2.10;97.30;;;;;;4897459;29;20524;-75
2021/01/07 09:59:20;;;;;;;20.40;9.77;;;2.10;97.30;;;;;;4897418;29;20436;-75
2021/01/07 10:01:46;;;;;;;20.50;9.50;;;2.20;97.30;;;;;;4898633;29;20457;-74
2021/01/07 10:04:13;;;;;;;26.63;12.07;;;2.10;97.30;;;;;;4897305;29;20501;-74
2021/01/07 10:06:40;;;;;;;21.20;9.13;;;2.10;97.30;;;;;;4897463;29;20440;-75
2021/01/07 10:09:06;;;;;;;23.03;9.17;;;2.10;97.30;;;;;;4898336;29;20424;-75
2021/01/07 10:11:32;;;;;;;23.30;10.53;;;2.10;97.30;;;;;;4897405;29;20532;-75
2021/01/07 10:13:57;;;;;;;17.73;9.43;;;2.20;97.30;;;;;;4897395;29;20196;-75
2021/01/07 10:16:23;;;;;;;21.17;9.93;;;2.20;97.30;;;;;;4897194;29;20212;-75
2021/01/07 10:18:49;;;;;;;22.80;10.83;;;2.20;97.30;;;;;;4897085;29;20203;-75
2021/01/07 10:21:20;;;;;;;20.83;9.90;;;2.30;97.30;;;;;;4897388;29;20205;-75
2021/01/07 10:23:48;;;;;;;21.73;10.20;;;2.20;97.30;;;;;;4897241;29;20188;-74
2021/01/07 10:26:16;;;;;;;19.37;9.00;;;2.30;97.30;;;;;;4897888;29;20424;-75
2021/01/07 10:28:44;;;;;;;19.00;9.73;;;2.30;97.30;;;;;;4897512;29;20451;-75
2021/01/07 10:31:10;;;;;;;18.97;9.17;;;2.20;97.30;;;;;;4897064;29;20461;-74
2021/01/07 10:33:38;;;;;;;22.50;9.87;;;2.20;97.30;;;;;;4896781;29;20477;-74
2021/01/07 10:36:04;;;;;;;16.83;9.40;;;2.20;97.30;;;;;;4896888;29;20216;-75
2021/01/07 10:38:32;;;;;;;19.47;9.40;;;2.20;97.30;;;;;;4898012;29;20457;-75
2021/01/07 10:41:00;;;;;;;18.90;8.80;;;2.20;97.30;;;;;;4896861;29;20517;-74
2021/01/07 10:43:28;;;;;;;21.60;9.37;;;2.30;97.30;;;;;;4896861;29;20428;-75
2021/01/07 10:45:54;;;;;;;22.03;10.77;;;2.40;97.30;;;;;;4896854;29;20923;-75
2021/01/07 10:48:23;;;;;;;21.40;9.93;;;2.40;97.30;;;;;;4897010;29;20468;-75
2021/01/07 10:50:52;;;;;;;18.10;8.53;;;2.50;97.30;;;;;;4896831;29;20532;-76
2021/01/07 10:53:56;;;;;;;24.10;9.90;;;2.50;97.30;;;;;;4896911;29;20428;-75
2021/01/07 10:56:56;;;;;;;19.20;9.47;;;2.40;97.30;;;;;;4896541;29;20465;-75
2021/01/07 10:59:42;;;;;;;21.23;9.17;;;2.40;97.30;;;;;;4876968;29;20513;-75
2021/01/07 11:02:23;;;;;;;17.33;8.57;;;2.50;97.30;;;;;;4895180;29;20457;-74
2021/01/07 11:05:13;;;;;;;20.57;8.00;;;2.50;97.30;;;;;;4896976;29;20417;-74
2021/01/07 11:07:38;;;;;;;21.87;9.63;;;2.50;97.30;;;;;;4896698;29;20429;-75
2021/01/07 11:10:06;;;;;;;15.50;7.77;;;2.50;97.30;;;;;;4896439;29;20463;-74
2021/01/07 11:12:54;;;;;;;19.03;8.20;;;2.50;97.30;;;;;;4897896;29;20205;-74
2021/01/07 11:15:23;;;;;;;16.83;8.03;;;2.40;97.30;;;;;;4896555;29;20417;-75
2021/01/07 11:18:02;;;;;;;18.90;8.77;;;2.40;97.30;;;;;;4896140;29;21039;-75
2021/01/07 11:20:30;;;;;;;22.00;8.60;;;2.50;97.30;;;;;;4896599;29;20515;-75
2021/01/07 11:22:57;;;;;;;20.40;9.20;;;2.60;97.30;;;;;;4898049;29;20539;-74
2021/01/07 11:25:23;;;;;;;18.50;9.20;;;2.60;97.30;;;;;;4896799;29;20421;-75
2021/01/07 11:27:51;;;;;;;16.57;7.23;;;2.60;97.30;;;;;;4896488;29;20434;-75
2021/01/07 11:30:19;;;;;;;16.40;8.07;;;2.60;97.30;;;;;;4896378;29;20462;-75
2021/01/07 11:32:46;;;;;;;14.90;7.53;;;2.60;97.30;;;;;;4895919;29;20465;-75
2021/01/07 11:35:13;;;;;;;19.60;7.83;;;2.70;97.30;;;;;;4896257;29;20520;-75
2021/01/07 11:37:54;;;;;;;15.83;7.80;;;2.70;97.30;;;;;;4897578;29;20489;-75
2021/01/07 11:40:33;;;;;;;17.67;7.87;;;2.60;97.30;;;;;;4897073;29;20516;-75
2021/01/07 11:43:24;;;;;;;18.07;7.67;;;2.70;97.30;;;;;;4898090;29;20424;-75
2021/01/07 11:46:01;;;;;;;17.37;7.50;;;2.60;97.30;;;;;;4896802;29;20786;-75
2021/01/07 11:48:30;;;;;;;22.10;8.70;;;2.60;97.30;;;;;;4899248;29;21021;-75
2021/01/07 11:51:05;;;;;;;17.13;7.70;;;2.60;97.30;;;;;;4899447;29;20536;-75
2021/01/07 11:53:32;;;;;;;17.80;8.50;;;2.50;97.30;;;;;;4899850;29;20472;-74
2021/01/07 11:55:59;;;;;;;17.20;7.63;;;2.50;97.30;;;;;;4900940;29;20785;-74
2021/01/07 11:58:27;;;;;;;15.37;7.77;;;2.50;97.30;;;;;;4899970;29;20509;-74
2021/01/07 12:00:59;;;;;;;16.73;8.07;;;2.50;97.30;;;;;;4899339;29;20457;-75
2021/01/07 12:03:33;;;;;;;17.20;7.30;;;2.50;97.30;;;;;;4899748;29;20918;-74
2021/01/07 12:06:09;;;;;;;19.40;8.43;;;2.50;97.30;;;;;;4899652;29;20500;-75
2021/01/07 12:09:03;;;;;;;16.23;7.37;;;2.50;97.30;;;;;;4900556;29;20765;-74
2021/01/07 12:11:52;;;;;;;18.93;8.30;;;2.50;97.30;;;;;;4899506;29;20441;-75
2021/01/07 12:14:22;;;;;;;21.87;8.90;;;2.50;97.30;;;;;;4899187;29;20417;-75
2021/01/07 12:16:53;;;;;;;15.40;7.60;;;2.50;97.30;;;;;;4899214;29;20469;-75
2021/01/07 12:19:24;;;;;;;18.73;8.07;;;2.50;97.30;;;;;;4899474;29;20429;-75
2021/01/07 12:21:51;;;;;;;15.33;7.53;;;2.50;97.30;;;;;;4899696;29;20460;-74
2021/01/07 12:24:18;;;;;;;19.67;8.40;;;2.50;97.30;;;;;;4899895;29;20681;-77
2021/01/07 12:26:47;;;;;;;19.63;8.50;;;2.50;97.30;;;;;;4899468;29;20425;-74
2021/01/07 12:29:23;;;;;;;20.63;9.50;;;2.50;97.30;;;;;;4899081;29;20430;-74
2021/01/07 12:31:54;;;;;;;21.80;9.17;;;2.50;97.30;;;;;;4899267;29;20484;-74
2021/01/07 12:34:51;;;;;;;25.07;8.87;;;2.50;97.30;;;;;;4898940;29;20441;-75
2021/01/07 12:37:19;;;;;;;17.80;8.87;;;2.50;97.30;;;;;;4899238;29;20465;-75
2021/01/07 12:40:06;;;;;;;20.53;8.40;;;2.50;97.30;;;;;;4899481;29;20771;-74
2021/01/07 12:42:42;;;;;;;18.50;7.87;;;2.60;97.30;;;;;;4899911;29;20441;-75
2021/01/07 12:45:13;;;;;;;19.07;9.57;;;2.50;97.30;;;;;;4899957;29;20794;-75
2021/01/07 12:47:39;;;;;;;30.73;9.30;;;2.50;97.30;;;;;;4899951;29;20452;-75
2021/01/07 12:50:10;;;;;;;21.83;8.77;;;2.50;97.30;;;;;;4901281;29;20426;-75
2021/01/07 12:52:36;;;;;;;23.13;8.57;;;2.50;97.30;;;;;;4901420;29;20465;-75
2021/01/07 12:55:03;;;;;;;20.47;8.93;;;2.50;97.30;;;;;;4900387;29;20528;-75
2021/01/07 12:57:53;;;;;;;14.73;7.20;;;2.50;97.30;;;;;;4900715;29;20469;-74
2021/01/07 13:00:23;;;;;;;21.33;9.27;;;2.50;97.30;;;;;;4900237;29;20428;-74
2021/01/07 13:03:30;;;;;;;16.40;6.77;;;2.50;97.30;;;;;;4899249;29;20437;-74
2021/01/07 13:05:58;;;;;;;17.77;8.87;;;2.50;97.30;;;;;;4897984;29;20426;-74
2021/01/07 13:08:24;;;;;;;19.30;9.03;;;2.50;97.30;;;;;;4899496;29;20417;-74
2021/01/07 13:10:54;;;;;;;20.30;7.70;;;2.60;97.30;;;;;;4898146;29;20441;-74
2021/01/07 13:13:27;;;;;;;18.40;8.83;;;2.60;97.30;;;;;;4898555;29;20428;-74
2021/01/07 13:15:53;;;;;;;15.43;6.90;;;2.60;97.30;;;;;;4898233;29;20915;-75
2021/01/07 13:18:19;;;;;;;17.23;7.10;;;2.50;97.30;;;;;;4897781;29;20438;-74
2021/01/07 13:20:44;;;;;;;19.30;7.90;;;2.50;97.30;;;;;;4898089;29;20437;-74
2021/01/07 13:23:10;;;;;;;17.93;7.70;;;2.40;97.30;;;;;;4897938;29;20185;-74
2021/01/07 13:25:36;;;;;;;21.47;8.00;;;2.40;97.30;;;;;;4898151;29;20624;-74
2021/01/07 13:28:05;;;;;;;19.60;8.37;;;2.40;97.30;;;;;;4897740;29;20421;-74
2021/01/07 13:30:32;;;;;;;18.67;7.77;;;2.40;97.30;;;;;;4897741;29;20433;-74
2021/01/07 13:32:59;;;;;;;22.27;8.90;;;2.40;97.30;;;;;;4898006;29;20433;-74
2021/01/07 13:35:31;;;;;;;14.73;6.83;;;2.40;97.30;;;;;;4897840;29;20426;-74
2021/01/07 13:37:59;;;;;;;16.57;7.50;;;2.40;97.30;;;;;;4897356;29;20477;-74
2021/01/07 13:40:25;;;;;;;16.70;7.83;;;2.40;97.30;;;;;;4897523;29;20800;-74
2021/01/07 13:42:56;;;;;;;14.97;7.73;;;2.40;97.30;;;;;;4897849;29;20422;-74
2021/01/07 13:45:22;;;;;;;20.10;8.17;;;2.40;97.30;;;;;;4897596;29;20204;-74
2021/01/07 13:47:50;;;;;;;16.63;7.10;;;2.40;97.30;;;;;;4897482;29;20817;-74
2021/01/07 13:50:22;;;;;;;19.00;7.67;;;2.40;97.30;;;;;;4897293;29;20430;-74
2021/01/07 13:52:52;;;;;;;17.23;7.00;;;2.40;97.30;;;;;;4897738;29;20924;-74
2021/01/07 13:55:19;;;;;;;15.47;7.33;;;2.40;97.30;;;;;;4897315;29;20424;-74
2021/01/07 13:57:45;;;;;;;15.37;7.63;;;2.40;97.30;;;;;;4898512;29;20916;-74
2021/01/07 14:00:12;;;;;;;17.20;8.27;;;2.40;97.30;;;;;;4898357;29;20473;-74
2021/01/07 14:02:38;;;;;;;16.97;7.50;;;2.40;97.30;;;;;;4897417;29;20651;-74
2021/01/07 14:05:05;;;;;;;18.37;8.00;;;2.40;97.30;;;;;;4897191;29;20433;-77
2021/01/07 14:07:39;;;;;;;18.00;7.80;;;2.40;97.30;;;;;;4897368;29;20443;-78
2021/01/07 14:10:09;;;;;;;16.30;7.40;;;2.60;97.30;;;;;;4897486;29;20429;-78
2021/01/07 14:12:42;;;;;;;18.13;8.40;;;2.80;97.30;;;;;;4897998;29;20442;-78
2021/01/07 14:15:08;;;;;;;17.00;8.43;;;3.40;97.30;;;;;;4898166;29;20946;-78
2021/01/07 14:17:34;;;;;;;15.73;7.30;;;3.40;97.30;;;;;;4897638;29;20484;-80
2021/01/07 14:20:02;;;;;;;20.40;8.43;;;3.30;97.30;;;;;;4897734;29;20480;-77
2021/01/07 14:22:30;;;;;;;13.03;6.53;;;3.20;97.30;;;;;;4898857;29;20473;-77
2021/01/07 14:24:55;;;;;;;17.77;8.00;;;3.10;97.30;;;;;;4898817;29;20884;-77
2021/01/07 14:27:31;;;;;;;20.13;8.07;;;3.20;97.30;;;;;;4897554;29;20425;-75
2021/01/07 14:30:00;;;;;;;17.93;8.50;;;3.10;97.30;;;;;;4898626;29;20626;-75
2021/01/07 14:32:26;;;;;;;15.30;6.30;;;2.80;97.30;;;;;;4897271;29;20935;-74
2021/01/07 14:34:54;;;;;;;18.37;7.50;;;2.70;97.30;;;;;;4897035;29;20426;-75
2021/01/07 14:37:23;;;;;;;19.73;8.20;;;2.60;97.30;;;;;;4897790;29;20462;-74
2021/01/07 14:39:50;;;;;;;16.07;7.50;;;2.50;97.30;;;;;;4897250;29;20495;-74
2021/01/07 14:42:20;;;;;;;17.93;8.40;;;2.50;97.30;;;;;;4898182;29;20433;-75
2021/01/07 14:44:47;;;;;;;15.30;7.70;;;2.40;97.30;;;;;;4897195;29;20425;-74
2021/01/07 14:47:16;;;;;;;17.70;7.53;;;2.40;97.30;;;;;;4897000;29;20457;-75
2021/01/07 14:49:47;;;;;;;18.70;7.77;;;2.40;97.30;;;;;;4897179;29;20440;-74
2021/01/07 14:52:16;;;;;;;16.23;7.20;;;2.40;97.30;;;;;;4896890;29;20851;-75
2021/01/07 14:54:43;;;;;;;18.70;7.23;;;2.30;97.30;;;;;;4897111;29;20428;-74
2021/01/07 14:57:20;;;;;;;16.73;7.60;;;2.30;97.30;;;;;;4897074;29;20528;-75
2021/01/07 14:59:53;;;;;;;16.43;7.17;;;2.30;97.30;;;;;;4896239;29;20476;-75
2021/01/07 15:02:42;;;;;;;17.37;7.70;;;2.30;97.30;;;;;;4896426;29;20461;-74
2021/01/07 15:05:18;;;;;;;17.13;8.00;;;2.30;97.30;;;;;;4895594;29;20489;-76
2021/01/07 15:08:18;;;;;;;16.67;7.63;;;2.30;97.30;;;;;;4895777;29;20452;-74
2021/01/07 15:10:47;;;;;;;16.10;8.10;;;2.30;97.30;;;;;;4896805;29;20987;-76
2021/01/07 15:13:18;;;;;;;20.87;8.60;;;2.30;97.30;;;;;;4897276;29;20924;-74
2021/01/07 15:15:59;;;;;;;21.33;9.47;;;2.30;97.30;;;;;;4897088;29;20440;-77
2021/01/07 15:18:48;;;;;;;13.40;6.90;;;2.30;97.30;;;;;;4896698;29;20504;-76
2021/01/07 15:21:30;;;;;;;18.73;7.90;;;2.20;97.30;;;;;;4897224;29;20444;-73
2021/01/07 15:24:25;;;;;;;17.40;8.20;;;2.20;97.30;;;;;;4900594;29;20433;-73
2021/01/07 15:26:59;;;;;;;17.37;7.73;;;2.20;97.30;;;;;;4900439;29;20410;-75
2021/01/07 15:29:43;;;;;;;13.97;6.23;;;2.20;97.30;;;;;;4900924;29;20429;-75
2021/01/07 15:32:28;;;;;;;15.90;8.03;;;2.20;97.30;;;;;;4900448;29;21014;-74
2021/01/07 15:35:02;;;;;;;18.80;8.20;;;2.20;97.30;;;;;;4905372;29;20413;-74
2021/01/07 15:37:58;;;;;;;15.80;7.83;;;2.20;97.30;;;;;;4901614;29;20473;-74
2021/01/07 15:40:40;;;;;;;18.07;9.23;;;2.20;97.30;;;;;;4900152;29;20414;-78
2021/01/07 15:43:21;;;;;;;16.80;9.27;;;2.20;97.30;;;;;;4899777;29;20533;-75
2021/01/07 15:45:53;;;;;;;23.07;9.20;;;2.20;97.30;;;;;;4900316;29;20417;-75
2021/01/07 15:48:59;;;;;;;17.67;8.17;;;2.20;97.30;;;;;;4900258;29;20991;-76
2021/01/07 15:51:43;;;;;;;22.10;8.30;;;2.20;97.30;;;;;;4900500;29;20445;-76
2021/01/07 15:54:12;;;;;;;14.87;7.00;;;2.20;97.30;;;;;;4898347;29;20869;-74
2021/01/07 15:56:40;;;;;;;13.63;7.37;;;2.20;97.30;;;;;;4899387;29;20531;-75
2021/01/07 15:59:23;;;;;;;17.70;8.43;;;2.20;97.30;;;;;;4899043;29;20485;-72
2021/01/07 16:01:53;;;;;;;17.00;8.13;;;2.20;97.30;;;;;;4899056;29;20468;-75
2021/01/07 16:04:25;;;;;;;16.80;7.43;;;2.20;97.30;;;;;;4898899;29;20509;-73
2021/01/07 16:07:02;;;;;;;16.47;6.80;;;2.20;97.30;;;;;;4899688;29;20417;-77
2021/01/07 16:09:28;;;;;;;13.90;7.10;;;2.20;97.30;;;;;;4899194;29;20788;-72
2021/01/07 16:12:03;;;;;;;16.93;7.90;;;2.20;97.30;;;;;;4899024;29;20453;-72
2021/01/07 16:14:32;;;;;;;14.63;6.93;;;2.20;97.30;;;;;;4900469;29;20416;-71
2021/01/07 16:16:59;;;;;;;16.43;7.33;;;2.20;97.30;;;;;;4899519;29;20473;-76
2021/01/07 16:19:25;;;;;;;23.10;7.80;;;2.20;97.30;;;;;;4899797;29;20473;-78
2021/01/07 16:22:13;;;;;;;18.70;7.60;;;2.20;97.30;;;;;;4899298;29;20542;-77
2021/01/07 16:24:51;;;;;;;17.33;8.47;;;2.20;97.30;;;;;;4899657;29;20493;-76
2021/01/07 16:27:28;;;;;;;17.03;7.83;;;2.10;97.30;;;;;;4900844;29;20429;-74
2021/01/07 16:29:55;;;;;;;16.33;7.87;;;2.10;97.30;;;;;;4900392;29;20401;-75
2021/01/07 16:32:21;;;;;;;42.17;16.90;;;2.10;97.30;;;;;;4899888;29;20441;-79
2021/01/07 16:34:56;;;;;;;23.87;10.70;;;2.10;97.30;;;;;;4900756;29;20481;-77
2021/01/07 16:37:22;;;;;;;44.77;19.70;;;2.10;97.30;;;;;;4898781;29;20260;-79
2021/01/07 16:39:48;;;;;;;41.93;16.63;;;2.10;97.30;;;;;;4899333;29;20796;-77
2021/01/07 16:42:15;;;;;;;21.60;9.07;;;2.10;97.30;;;;;;4899235;29;20972;-77
2021/01/07 16:44:43;;;;;;;25.07;10.00;;;2.10;97.30;;;;;;4894892;29;20885;-75
2021/01/07 16:47:09;;;;;;;22.23;12.00;;;2.10;97.30;;;;;;4892474;29;20509;-81
2021/01/07 16:49:35;;;;;;;25.07;12.07;;;2.10;97.30;;;;;;4904109;29;20449;-80
2021/01/07 16:52:01;;;;;;;16.37;8.00;;;2.10;97.30;;;;;;4893620;29;20259;-76
2021/01/07 16:54:30;;;;;;;17.80;9.13;;;2.10;97.30;;;;;;4899136;29;20667;-77
2021/01/07 16:56:57;;;;;;;16.93;7.77;;;2.10;97.30;;;;;;4898561;29;20497;-76
2021/01/07 16:59:23;;;;;;;16.30;7.73;;;2.10;97.30;;;;;;4892618;29;20493;-75
2021/01/07 17:01:49;;;;;;;17.47;8.37;;;2.10;97.30;;;;;;4896935;29;20834;-76
2021/01/07 17:04:15;;;;;;;19.37;8.03;;;2.10;97.30;;;;;;4898850;29;20429;-73
2021/01/07 17:06:41;;;;;;;14.93;7.87;;;2.10;97.30;;;;;;4898775;29;20437;-74
2021/01/07 17:09:07;;;;;;;21.07;8.53;;;2.10;97.30;;;;;;4899847;29;20421;-74
2021/01/07 17:11:36;;;;;;;17.23;8.03;;;2.10;97.30;;;;;;4899939;29;20209;-74
2021/01/07 17:14:03;;;;;;;18.50;8.53;;;2.10;97.30;;;;;;4899044;29;20216;-76
2021/01/07 17:16:29;;;;;;;17.57;7.83;;;2.10;97.30;;;;;;4898772;29;20465;-75
2021/01/07 17:19:00;;;;;;;17.93;8.37;;;2.10;97.30;;;;;;4899388;29;20520;-76
2021/01/07 17:21:26;;;;;;;14.97;6.97;;;2.10;97.30;;;;;;4900866;29;20587;-76
2021/01/07 17:24:00;;;;;;;18.27;8.10;;;2.10;97.30;;;;;;4898338;29;20448;-76
2021/01/07 17:26:28;;;;;;;21.50;8.53;;;2.10;97.30;;;;;;4899820;29;20229;-76
2021/01/07 17:28:54;;;;;;;52.43;17.73;;;2.00;97.30;;;;;;4899776;29;20503;-77
2021/01/07 17:31:20;;;;;;;34.83;14.57;;;2.00;97.30;;;;;;4898779;29;20472;-77
2021/01/07 17:33:46;;;;;;;25.47;11.07;;;2.00;97.30;;;;;;4900286;29;20181;-77
2021/01/07 17:36:12;;;;;;;59.63;20.20;;;2.00;97.30;;;;;;4899073;29;20504;-78
2021/01/07 17:38:38;;;;;;;72.60;19.60;;;2.00;97.30;;;;;;4901566;29;20272;-78
2021/01/07 17:41:05;;;;;;;45.40;18.80;;;2.00;97.30;;;;;;4908961;29;20465;-78
2021/01/07 17:43:31;;;;;;;23.10;9.23;;;2.00;97.30;;;;;;4897673;29;20421;-78
2021/01/07 17:45:57;;;;;;;42.27;17.00;;;2.00;97.30;;;;;;4909043;29;20805;-78
2021/01/07 17:48:22;;;;;;;51.20;19.53;;;2.00;97.30;;;;;;4917246;29;20552;-78
2021/01/07 17:50:48;;;;;;;22.57;11.47;;;2.00;97.30;;;;;;4902422;29;20656;-79
2021/01/07 17:53:14;;;;;;;22.73;10.73;;;2.00;97.30;;;;;;4898533;29;20185;-78
2021/01/07 17:55:39;;;;;;;20.87;9.10;;;2.00;97.30;;;;;;4898902;29;20181;-78
2021/01/07 17:58:05;;;;;;;17.73;8.77;;;2.00;97.30;;;;;;4898272;29;20303;-78
2021/01/07 18:00:31;;;;;;;24.00;9.97;;;2.00;97.30;;;;;;4898704;29;20217;-78
2021/01/07 18:02:57;;;;;;;23.43;10.07;;;2.00;97.30;;;;;;4898701;29;20217;-78
2021/01/07 18:05:24;;;;;;;21.47;9.53;;;2.00;97.30;;;;;;4898568;29;20188;-78
2021/01/07 18:07:53;;;;;;;28.10;11.97;;;2.00;97.30;;;;;;4899138;29;20432;-77
2021/01/07 18:10:19;;;;;;;26.20;9.97;;;2.00;97.30;;;;;;4899099;29;20433;-78
2021/01/07 18:12:45;;;;;;;18.73;9.40;;;2.00;97.30;;;;;;4898618;29;20546;-78
2021/01/07 18:15:10;;;;;;;22.20;9.53;;;2.00;97.30;;;;;;4905485;29;20280;-76
2021/01/07 18:17:36;;;;;;;19.43;9.57;;;2.00;97.30;;;;;;4907677;29;20212;-78
2021/01/07 18:20:03;;;;;;;19.73;9.37;;;2.00;97.30;;;;;;4899156;29;20756;-78
2021/01/07 18:22:28;;;;;;;17.47;8.53;;;2.00;97.30;;;;;;4899256;29;20205;-78
2021/01/07 18:24:54;;;;;;;16.73;8.50;;;2.00;97.30;;;;;;4897776;29;20927;-78
2021/01/07 18:27:20;;;;;;;22.27;8.60;;;2.00;97.30;;;;;;4898256;29;20185;-78
2021/01/07 18:29:45;;;;;;;19.80;8.87;;;2.00;97.30;;;;;;4898926;29;20224;-78
2021/01/07 18:32:11;;;;;;;18.47;7.73;;;2.00;97.30;;;;;;4897914;29;20672;-77
2021/01/07 18:34:37;;;;;;;19.60;9.00;;;2.00;97.30;;;;;;4898072;29;20564;-78
2021/01/07 18:37:03;;;;;;;21.53;9.57;;;2.00;97.30;;;;;;4898034;29;20205;-79
2021/01/07 18:39:29;;;;;;;20.73;9.30;;;2.00;97.30;;;;;;4898173;29;20185;-79
2021/01/07 18:41:54;;;;;;;22.30;9.60;;;2.00;97.30;;;;;;4897954;29;20735;-78
2021/01/07 18:44:23;;;;;;;17.83;8.87;;;2.00;97.30;;;;;;4897613;29;20422;-78
2021/01/07 18:46:49;;;;;;;20.40;9.13;;;2.00;97.30;;;;;;4898899;29;20201;-78
2021/01/07 18:49:15;;;;;;;20.93;8.93;;;2.00;97.30;;;;;;4897587;29;20434;-78
2021/01/07 18:51:41;;;;;;;22.07;9.73;;;2.00;97.30;;;;;;4897497;29;20460;-78
2021/01/07 18:54:07;;;;;;;19.27;9.80;;;2.00;97.30;;;;;;4897841;29;20841;-78
2021/01/07 18:56:33;;;;;;;22.13;9.33;;;2.00;97.30;;;;;;4901457;29;20556;-78
2021/01/07 18:58:58;;;;;;;19.93;8.90;;;2.00;97.30;;;;;;4901551;29;20275;-78
2021/01/07 19:01:24;;;;;;;20.87;9.67;;;2.00;97.30;;;;;;4901374;29;20307;-78
2021/01/07 19:03:49;;;;;;;17.70;8.60;;;2.00;97.30;;;;;;4902551;29;20232;-79
2021/01/07 19:06:15;;;;;;;25.03;10.80;;;2.00;97.30;;;;;;4901264;29;20643;-78